Time;durP1;ratioP1;P1;durP2;ratioP2;P2;SDS_P1;SDS_P2;PMS_P1;PMS_P2;Temp;Humidity;BMP_temperature;BMP_pressure;BME280_temperature;BME280_humidity;BME280_pressure;Samples;Min_cycle;Max_cycle;Signal;HPM_P1;HPM_P2
2023/07/25 00:02:19;;;;;;;4.78;3.72;;;;;;;-145.68;100.00;72604.44;10456199;28;20204;-65
2023/07/25 00:07:19;;;;;;;4.90;3.53;;;;;;;-145.68;100.00;72580.47;10455959;28;20230;-65
2023/07/25 00:12:20;;;;;;;6.45;3.97;;;;;;;-145.68;100.00;72568.47;10454503;28;20200;-64
2023/07/25 00:17:20;;;;;;;4.80;3.63;;;;;;;-145.68;100.00;72564.47;10455501;28;20235;-64
2023/07/25 00:22:21;;;;;;;3.88;3.10;;;;;;;-145.68;100.00;72530.50;10455378;28;20269;-64
2023/07/25 00:27:21;;;;;;;3.95;2.80;;;;;;;-145.68;100.00;72510.50;10454980;28;20232;-66
2023/07/25 00:32:21;;;;;;;4.03;3.33;;;;;;;-145.68;100.00;72506.50;10453688;28;20200;-66
2023/07/25 00:37:22;;;;;;;4.97;3.42;;;;;;;-145.68;100.00;72508.50;10436893;28;20208;-65
2023/07/25 00:42:22;;;;;;;4.35;2.88;;;;;;;-145.68;100.00;72510.50;10453117;28;20204;-66
2023/07/25 00:47:23;;;;;;;3.58;2.63;;;;;;;-145.68;100.00;72514.50;10453555;28;20219;-66
2023/07/25 00:52:23;;;;;;;5.07;2.85;;;;;;;-145.68;100.00;72496.53;10458135;28;20199;-67
2023/07/25 00:57:24;;;;;;;6.70;3.25;;;;;;;-145.68;100.00;72512.50;10458027;28;20862;-67
2023/07/25 01:02:24;;;;;;;4.45;2.70;;;;;;;-145.68;100.00;72514.50;10455924;28;20192;-67
2023/07/25 01:07:25;;;;;;;3.35;2.95;;;;;;;-145.68;100.00;72522.50;10457008;28;20691;-66
2023/07/25 01:12:25;;;;;;;5.65;2.75;;;;;;;-145.68;100.00;72526.50;10456516;28;20195;-67
2023/07/25 01:17:27;;;;;;;4.03;2.70;;;;;;;-145.68;100.00;72550.47;10456974;28;20235;-66
2023/07/25 01:22:28;;;;;;;4.35;2.90;;;;;;;-145.68;100.00;72572.47;10454484;28;20238;-67
2023/07/25 01:27:29;;;;;;;4.93;3.13;;;;;;;-145.68;100.00;72576.47;10454016;28;20226;-66
2023/07/25 01:32:30;;;;;;;3.83;2.53;;;;;;;-145.68;100.00;72616.44;10453478;28;20202;-66
2023/07/25 01:37:31;;;;;;;4.05;2.85;;;;;;;-145.68;100.00;72626.41;10453278;28;20762;-65
2023/07/25 01:42:31;;;;;;;3.67;2.95;;;;;;;-145.68;100.00;72618.44;10452054;28;20204;-65
2023/07/25 01:47:33;;;;;;;3.38;2.92;;;;;;;-145.68;100.00;72620.41;10436558;28;20235;-66
2023/07/25 01:52:33;;;;;;;3.47;3.17;;;;;;;-145.68;100.00;72640.41;10455330;28;20682;-66
2023/07/25 01:57:33;;;;;;;4.10;3.30;;;;;;;-145.68;100.00;72646.41;10454208;28;20215;-66
2023/07/25 02:02:34;;;;;;;5.32;3.38;;;;;;;-145.68;100.00;72642.41;10444640;28;20199;-66
2023/07/25 02:07:34;;;;;;;6.03;3.25;;;;;;;-145.68;100.00;72628.41;10464930;28;20705;-66
2023/07/25 02:12:34;;;;;;;6.22;3.30;;;;;;;-145.68;100.00;72632.41;10467002;28;20687;-66
2023/07/25 02:17:35;;;;;;;3.78;2.70;;;;;;;-145.68;100.00;72622.41;10464933;28;20239;-66
2023/07/25 02:22:35;;;;;;;5.53;3.00;;;;;;;-145.68;100.00;72624.41;10465159;28;20226;-66
2023/07/25 02:27:36;;;;;;;2.70;2.33;;;;;;;-145.68;100.00;72644.41;10466288;28;20239;-66
2023/07/25 02:32:36;;;;;;;3.17;2.47;;;;;;;-145.68;100.00;72648.41;10463617;28;20207;-66
2023/07/25 02:37:36;;;;;;;3.60;2.90;;;;;;;-145.68;100.00;72636.41;10452847;28;20235;-66
2023/07/25 02:42:37;;;;;;;5.15;3.00;;;;;;;-145.68;100.00;72636.41;10464695;28;20660;-66
2023/07/25 02:47:37;;;;;;;3.50;2.72;;;;;;;-145.68;100.00;72636.41;10464142;28;20876;-66
2023/07/25 02:52:37;;;;;;;3.67;2.85;;;;;;;-145.68;100.00;72622.41;10464033;28;20235;-66
2023/07/25 02:57:38;;;;;;;7.05;3.10;;;;;;;-145.68;100.00;72622.41;10446439;28;20275;-66
2023/07/25 03:02:38;;;;;;;4.25;2.78;;;;;;;-145.68;100.00;72606.44;10464252;28;20200;-66
2023/07/25 03:07:38;;;;;;;3.67;2.92;;;;;;;-145.68;100.00;72616.44;10464244;28;20307;-66
2023/07/25 03:12:39;;;;;;;3.22;2.90;;;;;;;-145.68;100.00;72592.44;10463089;28;20306;-67
2023/07/25 03:17:39;;;;;;;4.38;2.97;;;;;;;-145.68;100.00;72586.44;10479728;23;20325;-70
2023/07/25 03:22:40;;;;;;;6.00;3.05;;;;;;;-145.68;100.00;72594.44;10449982;28;20202;-70
2023/07/25 03:27:40;;;;;;;8.23;3.67;;;;;;;-145.68;100.00;72610.44;10455891;28;20231;-70
2023/07/25 03:32:41;;;;;;;4.93;4.20;;;;;;;-145.68;100.00;72590.44;10456072;28;20200;-68
2023/07/25 03:37:41;;;;;;;6.43;4.65;;;;;;;-145.68;100.00;72598.44;10456978;28;20274;-67
2023/07/25 03:42:41;;;;;;;7.85;4.32;;;;;;;-145.68;100.00;72602.44;10455334;28;20195;-67
2023/07/25 03:47:42;;;;;;;7.78;4.82;;;;;;;-145.68;100.00;72602.44;10456740;28;20227;-68
2023/07/25 03:52:42;;;;;;;6.55;4.55;;;;;;;-145.68;100.00;72606.44;10456381;28;20206;-67
2023/07/25 03:57:42;;;;;;;6.60;4.15;;;;;;;-145.68;100.00;72588.44;10456272;28;20695;-67
2023/07/25 04:02:43;;;;;;;4.93;4.35;;;;;;;-145.68;100.00;72582.44;10455568;28;20569;-67
2023/07/25 04:07:43;;;;;;;4.55;3.83;;;;;;;-145.68;100.00;72574.47;10455615;28;20678;-67
2023/07/25 04:12:44;;;;;;;3.85;3.55;;;;;;;-145.68;100.00;72568.47;10455661;28;20207;-67
2023/07/25 04:17:45;;;;;;;6.82;3.90;;;;;;;-145.68;100.00;72582.44;10453808;28;20693;-67
2023/07/25 04:22:45;;;;;;;5.63;3.53;;;;;;;-145.68;100.00;72570.47;10455365;28;20286;-68
2023/07/25 04:27:45;;;;;;;6.70;3.50;;;;;;;-145.68;100.00;72566.47;10454884;28;20226;-68
2023/07/25 04:32:46;;;;;;;3.03;2.72;;;;;;;-145.68;100.00;72536.50;10454889;28;20223;-68
2023/07/25 04:37:46;;;;;;;5.15;3.85;;;;;;;-145.68;100.00;72558.47;10454625;28;20215;-68
2023/07/25 04:42:47;;;;;;;4.55;3.40;;;;;;;-145.68;100.00;72546.47;10454468;28;20192;-67
2023/07/25 04:47:47;;;;;;;5.80;3.17;;;;;;;-145.68;100.00;72532.50;10454171;28;20223;-68
2023/07/25 04:52:47;;;;;;;5.40;3.40;;;;;;;-145.68;100.00;72536.50;10454143;28;20203;-69
2023/07/25 04:57:49;;;;;;;7.95;4.75;;;;;;;-145.68;100.00;72534.50;10453777;28;20302;-68
2023/07/25 05:02:50;;;;;;;6.53;4.47;;;;;;;-145.68;100.00;72532.50;10452523;28;20196;-67
2023/07/25 05:07:50;;;;;;;6.15;4.28;;;;;;;-145.68;100.00;72554.47;10453613;28;20235;-69
2023/07/25 05:12:50;;;;;;;7.85;4.22;;;;;;;-145.68;100.00;72580.47;10495297;28;20710;-69
2023/07/25 05:17:51;;;;;;;9.15;4.35;;;;;;;-145.68;100.00;72586.44;10494672;28;20783;-69
2023/07/25 05:22:51;;;;;;;7.82;3.83;;;;;;;-145.68;100.00;72558.47;10494604;28;20671;-69
2023/07/25 05:27:52;;;;;;;4.50;3.30;;;;;;;-145.68;100.00;72552.47;10494481;28;20227;-69
2023/07/25 05:32:52;;;;;;;7.13;3.60;;;;;;;-145.68;100.00;72558.47;10493950;28;20203;-69
2023/07/25 05:37:52;;;;;;;4.07;3.03;;;;;;;-145.68;100.00;72518.50;10494396;28;20694;-70
2023/07/25 05:42:53;;;;;;;4.95;2.95;;;;;;;-145.68;97.44;72496.53;10494684;28;20680;-70
2023/07/25 05:47:53;;;;;;;7.78;3.50;;;;;;;-145.68;97.07;72524.50;10494009;28;20241;-70
2023/07/25 05:52:53;;;;;;;3.22;2.92;;;;;;;-145.68;97.82;72548.47;10494107;28;20218;-70
2023/07/25 05:57:54;;;;;;;7.57;3.28;;;;;;;-145.68;95.37;72492.53;10493796;28;20225;-70
2023/07/25 06:02:54;;;;;;;4.80;2.90;;;;;;;-145.68;91.81;72486.53;10493419;28;20195;-70
2023/07/25 06:07:54;;;;;;;4.35;2.83;;;;;;;-145.68;89.48;72472.53;10493838;28;20306;-70
2023/07/25 06:12:55;;;;;;;5.05;2.65;;;;;;;-145.68;87.99;72448.56;10493403;28;20351;-70
2023/07/25 06:17:55;;;;;;;4.50;2.90;;;;;;;-145.68;85.28;72408.59;10492429;28;20223;-70
2023/07/25 06:22:56;;;;;;;3.45;2.72;;;;;;;-145.68;81.09;72386.63;10491048;28;20621;-70
2023/07/25 06:27:56;;;;;;;4.32;3.15;;;;;;;-145.68;78.94;72348.66;10493056;28;20285;-70
2023/07/25 06:32:56;;;;;;;6.53;4.07;;;;;;;-145.68;78.49;72362.66;10493400;28;20233;-71
2023/07/25 06:37:57;;;;;;;8.60;3.83;;;;;;;-145.68;79.61;72466.56;10493257;28;20207;-70
2023/07/25 06:42:57;;;;;;;4.28;3.67;;;;;;;-145.68;88.18;72518.50;10488406;28;20290;-69
2023/07/25 06:47:59;;;;;;;3.55;3.20;;;;;;;-145.68;83.12;72388.63;10496548;28;20318;-69
2023/07/25 06:52:59;;;;;;;4.85;2.72;;;;;;;-145.68;79.61;72364.63;10498578;28;20286;-69
2023/07/25 06:58:00;;;;;;;5.68;2.85;;;;;;;-145.68;79.00;72368.63;10496842;28;20222;-69
2023/07/25 07:03:00;;;;;;;2.88;2.67;;;;;;;-145.68;74.78;72324.69;10479966;28;20204;-70
2023/07/25 07:08:01;;;;;;;4.78;3.10;;;;;;;-145.68;79.70;72448.56;10481655;28;20257;-69
2023/07/25 07:13:02;;;;;;;4.95;2.63;;;;;;;-145.68;79.02;72360.66;10468389;28;20230;-70
2023/07/25 07:18:02;;;;;;;4.55;3.20;;;;;;;-145.68;77.36;72292.72;10488194;28;20322;-70
2023/07/25 07:23:03;;;;;;;5.28;4.30;;;;;;;-145.68;74.63;72262.72;10539389;22;20242;-73
2023/07/25 08:17:06;;;;;;;4.28;2.92;;;;;;;-145.68;63.61;72116.88;10331235;23;20240;-73
2023/07/25 08:22:06;;;;;;;4.45;2.72;;;;;;;-145.68;64.96;72128.84;10199066;29;20216;-73
2023/07/25 08:27:08;;;;;;;4.18;2.42;;;;;;;-145.68;63.24;72200.78;10236043;29;20207;-73
2023/07/25 08:32:09;;;;;;;3.33;2.28;;;;;;;-145.68;62.74;72150.84;10182626;29;20672;-73
2023/07/25 08:37:10;;;;;;;6.82;2.78;;;;;;;-145.68;63.58;72218.78;10218854;29;20224;-73
2023/07/25 08:42:11;;;;;;;3.67;3.10;;;;;;;-145.68;61.01;72074.91;10254989;29;20207;-73
2023/07/25 08:47:22;;;;;;;4.82;3.97;;;;;;;-145.68;62.72;72190.81;10237277;29;20215;-73
2023/07/25 08:52:26;;;;;;;4.30;2.95;;;;;;;-145.68;58.88;71995.00;10253688;29;20208;-73
2023/07/25 08:57:27;;;;;;;7.70;3.00;;;;;;;-145.68;54.81;71839.16;10234806;29;20215;-73
2023/07/25 09:02:34;;;;;;;3.83;3.20;;;;;;;-145.68;52.69;71831.16;10263791;28;20221;-73
2023/07/25 09:07:34;;;;;;;5.43;4.55;;;;;;;-145.68;52.00;71779.19;10251578;28;20238;-73
2023/07/25 09:12:35;;;;;;;4.65;3.85;;;;;;;-145.68;53.16;71773.22;10246904;28;20556;-74
2023/07/25 09:17:35;;;;;;;4.00;3.38;;;;;;;-145.68;49.28;71659.34;10207422;29;20234;-73
2023/07/25 09:22:37;;;;;;;4.78;3.67;;;;;;;-145.68;48.63;71635.34;10211772;29;20258;-73
2023/07/25 09:27:37;;;;;;;4.38;3.97;;;;;;;-145.68;50.88;71749.22;10210192;29;20238;-73
2023/07/25 09:32:38;;;;;;;5.93;5.25;;;;;;;-145.68;50.79;71773.22;10198280;29;20561;-73
2023/07/25 09:37:38;;;;;;;6.18;4.95;;;;;;;-145.68;51.94;71779.19;10218514;29;20291;-73
2023/07/25 09:42:41;;;;;;;6.25;5.43;;;;;;;-145.68;50.83;71773.22;10203907;29;20690;-72
2023/07/25 09:47:41;;;;;;;6.25;4.10;;;;;;;-145.68;50.58;71763.22;10215240;29;20235;-73
2023/07/25 09:52:42;;;;;;;4.28;3.88;;;;;;;-145.68;50.66;71809.16;10200494;29;20571;-72
2023/07/25 09:57:43;;;;;;;5.70;3.97;;;;;;;-145.68;51.40;71833.16;10202216;29;20212;-73
2023/07/25 10:03:17;;;;;;;4.93;4.05;;;;;;;-145.68;51.81;71897.09;10186714;29;20441;-73
2023/07/25 10:08:18;;;;;;;4.07;3.05;;;;;;;-145.68;50.20;71771.22;10019825;29;20578;-73
2023/07/25 10:13:18;;;;;;;5.70;3.30;;;;;;;-145.68;51.42;71843.13;10158600;29;20239;-73
2023/07/25 10:19:04;;;;;;;3.63;2.88;;;;;;;-145.68;50.30;71783.19;10202252;29;20228;-73
2023/07/25 10:24:05;;;;;;;4.32;2.95;;;;;;;-145.68;50.02;71725.25;10187607;29;20252;-73
2023/07/25 10:29:45;;;;;;;4.78;3.10;;;;;;;-145.68;51.33;71951.03;10225510;23;20247;-66
2023/07/25 10:35:06;;;;;;;3.42;3.00;;;;;;;-145.68;50.85;71889.09;10227951;23;20708;-64
2023/07/25 10:40:13;;;;;;;3.20;2.60;;;;;;;-145.68;49.68;71833.16;10206217;29;20833;-64
2023/07/25 10:45:29;;;;;;;4.18;3.17;;;;;;;-145.68;47.41;71755.22;10173245;29;20229;-66
2023/07/25 10:50:44;;;;;;;3.22;2.70;;;;;;;-145.68;47.59;71657.34;10165023;29;20239;-66
2023/07/25 10:56:03;;;;;;;3.53;2.72;;;;;;;-145.68;46.67;71625.38;10164902;29;20244;-66
2023/07/25 11:01:03;;;;;;;4.32;2.72;;;;;;;-145.68;46.65;71675.31;10163933;29;20307;-66
2023/07/25 11:06:07;;;;;;;3.20;2.60;;;;;;;-145.68;49.20;71713.28;10154839;29;20228;-65
2023/07/25 11:11:10;;;;;;;6.13;2.30;;;;;;;-145.68;47.35;71601.41;10201778;29;20240;-66
2023/07/25 11:16:11;;;;;;;6.88;2.90;;;;;;;-145.68;44.69;71577.41;10205830;29;20239;-66
2023/07/25 11:21:11;;;;;;;4.75;2.38;;;;;;;-145.68;43.87;71427.59;10204697;29;20690;-66
2023/07/25 11:26:13;;;;;;;2.90;2.60;;;;;;;-145.68;42.32;71409.59;10214784;29;20242;-66
2023/07/25 11:31:21;;;;;;;2.45;2.25;;;;;;;-145.68;43.49;71413.59;10206215;29;20239;-66
2023/07/25 11:36:21;;;;;;;3.55;2.50;;;;;;;-145.68;42.85;71415.59;10208121;29;20271;-66
2023/07/25 11:41:22;;;;;;;3.22;2.30;;;;;;;-145.68;43.63;71443.56;10202089;29;20211;-66
2023/07/25 11:46:22;;;;;;;4.03;2.65;;;;;;;-145.68;45.67;71555.44;10183075;29;20231;-66
2023/07/25 11:51:23;;;;;;;3.25;2.60;;;;;;;-145.68;45.66;71581.41;10197597;29;20223;-66
2023/07/25 11:56:24;;;;;;;5.45;3.10;;;;;;;-145.68;45.95;71631.34;10189101;29;20713;-66
2023/07/25 12:01:29;;;;;;;2.88;2.55;;;;;;;-145.68;45.83;71571.44;10206267;29;20636;-66
2023/07/25 12:06:30;;;;;;;4.68;1.92;;;;;;;-145.68;44.58;71525.47;10221170;28;20236;-66
2023/07/25 12:11:33;;;;;;;5.85;2.47;;;;;;;-145.68;43.29;71407.59;10212743;29;20299;-66
2023/07/25 12:16:35;;;;;;;4.22;2.40;;;;;;;-145.68;44.50;71425.59;10240712;28;20747;-66
2023/07/25 12:21:38;;;;;;;2.60;2.40;;;;;;;-145.68;43.55;71391.63;10215035;29;20693;-66
2023/07/25 12:26:51;;;;;;;2.95;1.95;;;;;;;-145.68;41.70;71385.63;10205003;29;20270;-67
2023/07/25 12:31:53;;;;;;;3.22;2.63;;;;;;;-145.68;47.03;71571.44;10189826;29;20236;-66
2023/07/25 12:36:53;;;;;;;4.03;3.60;;;;;;;-145.68;50.81;71777.22;10205910;29;20613;-66
2023/07/25 12:41:55;;;;;;;4.57;2.70;;;;;;;-145.68;51.50;71785.19;10206303;29;20225;-66
2023/07/25 12:46:55;;;;;;;3.55;3.05;;;;;;;-145.68;53.84;71887.09;10206311;29;20231;-66
2023/07/25 12:51:59;;;;;;;5.10;3.15;;;;;;;-145.68;55.19;71879.09;10206059;29;20262;-66
2023/07/25 12:56:59;;;;;;;5.32;3.50;;;;;;;-145.68;57.62;71961.03;10205416;29;20238;-66
2023/07/25 13:01:59;;;;;;;6.00;3.97;;;;;;;-145.68;62.24;72160.81;10205938;29;20839;-67
2023/07/25 13:07:00;;;;;;;11.55;4.90;;;;;;;-145.68;96.35;72520.50;10205626;29;20299;-66
2023/07/25 13:12:00;;;;;;;12.00;5.82;;;;;;;-145.68;100.00;72624.41;10205316;29;20270;-66
2023/07/25 13:17:00;;;;;;;5.05;2.45;;;;;;;-145.68;100.00;72654.41;10205563;29;20235;-68
2023/07/25 13:22:01;;;;;;;4.63;2.65;;;;;;;-145.68;100.00;72658.38;10206087;29;20223;-67
2023/07/25 13:27:02;;;;;;;12.55;3.75;;;;;;;-145.68;100.00;72650.41;10204533;29;20250;-68
2023/07/25 13:32:02;;;;;;;9.75;4.05;;;;;;;-145.68;100.00;72652.41;10205288;29;20579;-67
2023/07/25 13:37:03;;;;;;;5.47;3.58;;;;;;;-145.68;100.00;72642.41;10205174;29;20310;-67
2023/07/25 13:42:04;;;;;;;7.40;3.75;;;;;;;-145.68;100.00;72638.41;10205361;29;20215;-67
2023/07/25 13:47:04;;;;;;;6.82;3.75;;;;;;;-145.68;100.00;72616.44;10205897;29;20234;-68
2023/07/25 13:52:04;;;;;;;8.65;4.25;;;;;;;-145.68;100.00;72582.44;10205780;29;20238;-68
2023/07/25 13:57:05;;;;;;;8.93;3.50;;;;;;;-145.68;100.00;72574.47;10205799;29;20244;-68
2023/07/25 14:02:06;;;;;;;7.93;4.03;;;;;;;-145.68;100.00;72570.47;10211998;29;20663;-69
2023/07/25 14:07:07;;;;;;;4.93;3.83;;;;;;;-145.68;100.00;72580.47;10213217;29;20747;-67
2023/07/25 14:12:07;;;;;;;7.50;4.80;;;;;;;-145.68;100.00;72586.44;10209362;29;20235;-67
2023/07/25 14:17:08;;;;;;;7.05;4.10;;;;;;;-145.68;100.00;72608.44;10208530;29;20239;-66
2023/07/25 14:22:08;;;;;;;5.65;3.33;;;;;;;-145.68;100.00;72598.44;10205479;29;20234;-67
2023/07/25 14:27:09;;;;;;;4.93;2.70;;;;;;;-145.68;100.00;72592.44;10209131;29;20299;-67
2023/07/25 14:32:10;;;;;;;3.70;2.83;;;;;;;-145.68;100.00;72610.44;10209829;29;20295;-66
2023/07/25 14:37:10;;;;;;;3.35;2.40;;;;;;;-145.68;100.00;72624.41;10206940;29;20298;-67
2023/07/25 14:42:10;;;;;;;8.73;2.60;;;;;;;-145.68;100.00;72648.41;10208996;29;20234;-66
2023/07/25 14:47:11;;;;;;;3.15;2.80;;;;;;;-145.68;100.00;72648.41;10208061;29;20244;-66
2023/07/25 14:52:11;;;;;;;4.25;3.40;;;;;;;-145.68;100.00;72648.41;10208666;29;20250;-67
2023/07/25 14:57:11;;;;;;;5.57;5.03;;;;;;;-145.68;100.00;72628.41;10208532;29;20243;-67
2023/07/25 15:02:12;;;;;;;10.20;9.13;;;;;;;-145.68;100.00;72610.44;10207862;29;20227;-66
2023/07/25 15:07:12;;;;;;;11.02;8.60;;;;;;;-145.68;100.00;72614.44;10203126;29;20231;-66
2023/07/25 15:12:12;;;;;;;11.65;8.75;;;;;;;-145.68;100.00;72632.41;10208380;29;20231;-66
2023/07/25 15:17:20;;;;;;;12.90;8.38;;;;;;;-145.68;100.00;72672.38;10210079;29;20349;-67
2023/07/25 15:22:20;;;;;;;10.50;8.75;;;;;;;-145.68;100.00;72644.41;10209109;29;20226;-67
2023/07/25 15:27:20;;;;;;;9.40;8.43;;;;;;;-145.68;100.00;72632.41;10210846;29;20231;-66
2023/07/25 15:32:21;;;;;;;10.05;9.05;;;;;;;-145.68;100.00;72612.44;10211174;29;20207;-67
2023/07/25 15:37:21;;;;;;;10.25;6.88;;;;;;;-145.68;100.00;72604.44;10209167;29;20224;-67
2023/07/25 15:42:21;;;;;;;8.63;7.82;;;;;;;-145.68;100.00;72608.44;10208651;29;21030;-68
2023/07/25 15:47:23;;;;;;;8.98;8.07;;;;;;;-145.68;100.00;72584.44;10208976;29;20579;-68
2023/07/25 15:52:23;;;;;;;9.90;7.07;;;;;;;-145.68;100.00;72536.50;10209281;29;20215;-69
2023/07/25 15:57:24;;;;;;;9.85;7.03;;;;;;;-145.68;100.00;72528.50;10193579;29;20695;-69
2023/07/25 16:02:24;;;;;;;10.02;7.00;;;;;;;-145.68;100.00;72510.50;10211746;29;20216;-69
2023/07/25 16:07:24;;;;;;;9.27;7.57;;;;;;;-145.68;100.00;72508.50;10213150;29;20714;-70
2023/07/25 16:12:25;;;;;;;9.50;6.82;;;;;;;-145.68;100.00;72486.53;10212591;29;20614;-69
2023/07/25 16:17:25;;;;;;;10.88;7.35;;;;;;;-145.68;100.00;72486.53;10212137;29;20235;-69
2023/07/25 16:22:25;;;;;;;8.02;6.85;;;;;;;-145.68;100.00;72500.53;10212179;29;20312;-70
2023/07/25 16:27:26;;;;;;;9.25;7.22;;;;;;;-145.68;100.00;72502.53;10211444;29;20231;-69
2023/07/25 16:32:27;;;;;;;11.02;7.55;;;;;;;-145.68;100.00;72506.50;10210983;29;20215;-69
2023/07/25 16:37:28;;;;;;;9.25;7.75;;;;;;;-145.68;100.00;72520.50;10206939;23;20734;-67
2023/07/25 16:42:28;;;;;;;11.77;8.05;;;;;;;-145.68;100.00;72542.50;10172516;29;20208;-67
2023/07/25 16:47:29;;;;;;;11.40;8.88;;;;;;;-145.68;100.00;72546.47;10144861;29;20229;-67
2023/07/25 16:52:34;;;;;;;12.05;9.35;;;;;;;-145.68;100.00;72572.47;10132287;29;20213;-67
2023/07/25 16:57:34;;;;;;;8.70;7.80;;;;;;;-145.68;100.00;72576.47;10132025;29;20252;-67
2023/07/25 17:02:35;;;;;;;12.57;9.77;;;;;;;-145.68;100.00;72594.44;10132487;29;20209;-66
2023/07/25 17:07:35;;;;;;;15.02;9.93;;;;;;;-145.68;100.00;72606.44;10132597;29;20231;-66
2023/07/25 17:12:35;;;;;;;11.57;8.40;;;;;;;-145.68;100.00;72618.44;10132045;29;20205;-65
2023/07/25 17:17:36;;;;;;;12.52;8.13;;;;;;;-145.68;100.00;72644.41;10131419;29;20237;-65
2023/07/25 17:22:36;;;;;;;12.32;8.98;;;;;;;-145.68;100.00;72660.38;10131936;29;20691;-66
2023/07/25 17:27:37;;;;;;;10.93;8.40;;;;;;;-145.68;100.00;72670.38;10131097;29;20324;-65
2023/07/25 17:32:37;;;;;;;9.60;8.70;;;;;;;-145.68;100.00;72684.38;10130761;29;20253;-66
2023/07/25 17:37:40;;;;;;;10.35;7.68;;;;;;;-145.68;100.00;72680.38;10129505;29;20247;-65
2023/07/25 17:42:41;;;;;;;13.85;9.52;;;;;;;-145.68;100.00;72692.38;10130535;29;20308;-65
2023/07/25 17:47:41;;;;;;;16.45;9.25;;;;;;;-145.68;100.00;72696.34;10129639;29;20236;-65
2023/07/25 17:52:41;;;;;;;11.48;10.27;;;;;;;-145.68;100.00;72718.34;10130305;29;20225;-65
2023/07/25 17:57:42;;;;;;;13.57;10.50;;;;;;;-145.68;100.00;72730.34;10130212;29;20711;-66
2023/07/25 18:02:42;;;;;;;13.15;10.68;;;;;;;-145.68;100.00;72746.31;10130964;29;20686;-66
2023/07/25 18:07:42;;;;;;;9.75;8.05;;;;;;;-145.68;100.00;72760.31;10130092;29;20605;-66
2023/07/25 18:12:43;;;;;;;11.10;8.43;;;;;;;-145.68;100.00;72786.28;10130742;29;20645;-66
2023/07/25 18:17:43;;;;;;;10.50;8.65;;;;;;;-145.68;100.00;72804.28;10130133;29;20236;-65
2023/07/25 18:22:44;;;;;;;10.90;8.52;;;;;;;-145.68;100.00;72826.25;10130497;29;20304;-66
2023/07/25 18:27:44;;;;;;;11.15;8.57;;;;;;;-145.68;100.00;72838.25;10129995;29;20595;-66
2023/07/25 18:32:45;;;;;;;13.57;9.10;;;;;;;-145.68;100.00;72856.22;10130214;29;20209;-66
2023/07/25 18:37:46;;;;;;;12.10;8.40;;;;;;;-145.68;100.00;72864.22;10129970;29;20233;-65
2023/07/25 18:42:46;;;;;;;10.73;8.15;;;;;;;-145.68;100.00;72882.22;10134518;29;20232;-65
2023/07/25 18:47:47;;;;;;;11.48;7.35;;;;;;;-145.68;100.00;72902.19;10136638;29;20233;-66
2023/07/25 18:52:47;;;;;;;11.45;7.82;;;;;;;-145.68;100.00;72916.19;10137111;29;20221;-66
2023/07/25 18:57:47;;;;;;;12.25;8.20;;;;;;;-145.68;100.00;72934.19;10136048;29;20249;-66
2023/07/25 19:02:48;;;;;;;9.35;6.85;;;;;;;-145.68;100.00;72962.16;10136908;29;20349;-65
2023/07/25 19:07:49;;;;;;;11.93;6.65;;;;;;;-145.68;100.00;72970.16;10135724;29;20704;-66
2023/07/25 19:12:49;;;;;;;10.25;7.68;;;;;;;-145.68;100.00;72988.13;10131036;29;20683;-65
2023/07/25 19:17:49;;;;;;;15.00;8.13;;;;;;;-145.68;100.00;73000.13;10175217;29;20232;-65
2023/07/25 19:22:50;;;;;;;11.98;8.20;;;;;;;-145.68;100.00;73010.13;10175547;29;20292;-66
2023/07/25 19:27:50;;;;;;;10.10;6.97;;;;;;;-145.68;100.00;73028.09;10175097;29;20236;-66
2023/07/25 19:32:50;;;;;;;8.82;6.53;;;;;;;-145.68;100.00;73052.09;10175029;29;20660;-66
2023/07/25 19:37:51;;;;;;;9.68;7.68;;;;;;;-145.68;100.00;73068.06;10174713;29;20578;-65
2023/07/25 19:42:51;;;;;;;10.05;7.78;;;;;;;-145.68;100.00;73104.06;10174579;29;20584;-65
2023/07/25 19:47:51;;;;;;;10.15;7.13;;;;;;;-145.68;100.00;73128.03;10174139;29;20295;-66
2023/07/25 19:52:53;;;;;;;11.52;6.97;;;;;;;-145.68;100.00;73162.00;10173351;29;20220;-66
2023/07/25 19:57:54;;;;;;;6.95;6.28;;;;;;;-145.68;100.00;73190.00;10173871;29;20719;-67
2023/07/25 20:02:54;;;;;;;7.93;7.13;;;;;;;-145.68;100.00;73200.00;10173982;29;20217;-66
2023/07/25 20:07:54;;;;;;;11.52;6.93;;;;;;;-145.68;100.00;73215.97;10173181;29;20244;-66
2023/07/25 20:12:55;;;;;;;8.18;5.70;;;;;;;-145.68;100.00;73211.97;10173699;29;20216;-66
2023/07/25 20:17:55;;;;;;;8.80;6.07;;;;;;;-145.68;100.00;73209.97;10173061;29;20244;-66
2023/07/25 20:22:55;;;;;;;12.32;6.22;;;;;;;-145.68;100.00;73205.97;10172675;29;20232;-67
2023/07/25 20:27:56;;;;;;;9.05;6.70;;;;;;;-145.68;100.00;73251.94;10172535;29;20244;-67
2023/07/25 20:32:56;;;;;;;8.93;6.85;;;;;;;-145.68;100.00;73255.94;10172224;29;20734;-68
2023/07/25 20:37:56;;;;;;;9.35;8.15;;;;;;;-145.68;100.00;73249.94;10172069;29;20717;-67
2023/07/25 20:42:57;;;;;;;11.07;8.77;;;;;;;-145.68;100.00;73233.97;10172020;29;20580;-67
2023/07/25 20:47:57;;;;;;;9.38;8.48;;;;;;;-145.68;100.00;73233.97;10171516;29;20726;-66
2023/07/25 20:52:57;;;;;;;14.23;9.68;;;;;;;-145.68;100.00;73239.97;10171820;29;20581;-66
2023/07/25 20:57:58;;;;;;;16.23;10.80;;;;;;;-145.68;100.00;73219.97;10170565;29;20290;-66
2023/07/25 21:02:58;;;;;;;12.32;10.38;;;;;;;-145.68;100.00;73223.97;10171127;29;20224;-67
2023/07/25 21:07:58;;;;;;;16.63;10.20;;;;;;;-145.68;100.00;73243.97;10170380;29;20240;-67
2023/07/25 21:12:59;;;;;;;10.95;9.32;;;;;;;-145.68;100.00;73251.94;10171297;29;20209;-66
2023/07/25 21:17:59;;;;;;;12.35;8.80;;;;;;;-145.68;100.00;73257.94;10171191;29;20235;-65
2023/07/25 21:23:00;;;;;;;15.45;11.32;;;;;;;-145.68;100.00;73249.94;10171238;29;20244;-66
2023/07/25 21:28:00;;;;;;;12.90;9.80;;;;;;;-145.68;100.00;73253.94;10170483;29;20714;-67
2023/07/25 21:33:00;;;;;;;18.98;9.15;;;;;;;-145.68;100.00;73239.97;10171375;29;20683;-66
2023/07/25 21:38:01;;;;;;;14.77;9.63;;;;;;;-145.68;100.00;73239.97;10170324;29;20732;-67
2023/07/25 21:43:01;;;;;;;14.65;10.27;;;;;;;-145.68;100.00;73249.94;10171004;29;20686;-66
2023/07/25 21:48:01;;;;;;;14.18;10.55;;;;;;;-145.68;100.00;73255.94;10170038;29;20248;-66
2023/07/25 21:53:02;;;;;;;13.55;10.27;;;;;;;-145.68;100.00;73251.94;10170699;29;20216;-66
2023/07/25 21:58:02;;;;;;;14.23;8.90;;;;;;;-145.68;100.00;73249.94;10170368;29;20897;-66
2023/07/25 22:03:03;;;;;;;11.80;9.40;;;;;;;-145.68;100.00;73259.94;10170300;29;20352;-67
2023/07/25 22:08:06;;;;;;;19.58;9.40;;;;;;;-145.68;100.00;73251.94;10170085;29;20244;-67
2023/07/25 22:13:06;;;;;;;15.45;8.73;;;;;;;-145.68;100.00;73265.94;10170086;29;20212;-65
2023/07/25 22:18:07;;;;;;;15.75;9.00;;;;;;;-145.68;100.00;73273.94;10175426;29;20722;-67
2023/07/25 22:23:08;;;;;;;14.18;10.48;;;;;;;-145.68;100.00;73279.94;10177650;29;20601;-65
2023/07/25 22:28:08;;;;;;;15.55;10.48;;;;;;;-145.68;100.00;73277.94;10177039;29;20702;-66
2023/07/25 22:33:09;;;;;;;16.27;8.27;;;;;;;-145.68;100.00;73279.94;10177516;29;20315;-65
2023/07/25 22:38:09;;;;;;;14.25;8.25;;;;;;;-145.68;100.00;73279.94;10219892;23;20255;-68
2023/07/25 22:43:09;;;;;;;10.55;7.50;;;;;;;-145.68;100.00;73283.94;10215430;29;20287;-67
2023/07/25 22:48:10;;;;;;;10.95;6.40;;;;;;;-145.68;100.00;73291.94;10190446;29;20699;-67
2023/07/25 22:53:10;;;;;;;9.50;6.78;;;;;;;-145.68;100.00;73293.94;10176641;29;20204;-66
2023/07/25 22:58:10;;;;;;;10.20;6.30;;;;;;;-145.68;100.00;73303.91;10176477;29;20244;-67
2023/07/25 23:03:11;;;;;;;14.15;7.15;;;;;;;-145.68;100.00;73283.94;10176022;29;20223;-67
2023/07/25 23:08:12;;;;;;;12.80;6.75;;;;;;;-145.68;100.00;73263.94;10176159;29;20268;-67
2023/07/25 23:13:12;;;;;;;11.00;6.25;;;;;;;-145.68;100.00;73249.94;10175892;29;20232;-67
2023/07/25 23:18:12;;;;;;;11.57;5.82;;;;;;;-145.68;100.00;73247.97;10175678;29;20240;-67
2023/07/25 23:23:13;;;;;;;9.57;5.93;;;;;;;-145.68;100.00;73253.94;10175604;29;20212;-67